Terminal Aerodrome Forecast
Issued by NWS Wichita, KS

Home | Current Version | Previous Version | Text Only | Print | Product List | Glossary On
Versions: 1 2 3 4 5 6 7 8 9 10 11 12 13 14 15 16 17 18 19 20
558
FTUS43 KICT 190547
TAFICT
TAF
KICT 190547Z 1906/2006 16009KT P6SM OVC050
     FM190800 16009KT P6SM OVC013
     FM191000 16009KT 5SM BR OVC007
     FM191300 15009KT 4SM BR OVC003
     FM191700 16007KT P6SM OVC008
     FM192000 16007KT P6SM OVC013=

USA.gov is the U.S. government's official web portal to all federal, state and local government web resources and services.